sensor_id;sensor_type;location;lat;lon;timestamp;pressure;altitude;pressure_sealevel;temperature;humidity
8075;BME280;4080;42.676;23.372;2023-09-19T18:31:16;95218.94;;;21.85;100.00
8075;BME280;4080;42.676;23.372;2023-09-19T18:33:44;95222.63;;;21.92;100.00
8075;BME280;4080;42.676;23.372;2023-09-19T18:36:12;95226.75;;;22.02;100.00
8075;BME280;4080;42.676;23.372;2023-09-19T18:38:39;95219.31;;;22.08;100.00
8075;BME280;4080;42.676;23.372;2023-09-19T18:41:06;95237.44;;;22.23;100.00
8075;BME280;4080;42.676;23.372;2023-09-19T18:43:34;95237.22;;;22.28;100.00
8075;BME280;4080;42.676;23.372;2023-09-19T18:46:02;95238.34;;;22.27;100.00
8075;BME280;4080;42.676;23.372;2023-09-19T18:48:31;95241.13;;;22.30;100.00
8075;BME280;4080;42.676;23.372;2023-09-19T18:51:04;95242.59;;;22.28;100.00
8075;BME280;4080;42.676;23.372;2023-09-19T18:53:31;95242.38;;;22.33;100.00
8075;BME280;4080;42.676;23.372;2023-09-19T18:56:03;95248.41;;;22.30;100.00
8075;BME280;4080;42.676;23.372;2023-09-19T18:58:30;95234.09;;;22.14;100.00
8075;BME280;4080;42.676;23.372;2023-09-19T19:01:00;95254.34;;;22.23;100.00
8075;BME280;4080;42.676;23.372;2023-09-19T19:03:28;95255.38;;;22.19;100.00
8075;BME280;4080;42.676;23.372;2023-09-19T19:05:57;95263.88;;;22.21;100.00
8075;BME280;4080;42.676;23.372;2023-09-19T19:08:24;95260.28;;;22.17;100.00
8075;BME280;4080;42.676;23.372;2023-09-19T19:10:51;95254.69;;;22.10;100.00
8075;BME280;4080;42.676;23.372;2023-09-19T19:13:18;95236.09;;;22.05;100.00
8075;BME280;4080;42.676;23.372;2023-09-19T19:15:45;95250.63;;;22.04;100.00
8075;BME280;4080;42.676;23.372;2023-09-19T19:18:12;95248.69;;;21.92;100.00
8075;BME280;4080;42.676;23.372;2023-09-19T19:20:38;95248.78;;;21.83;100.00
8075;BME280;4080;42.676;23.372;2023-09-19T19:23:08;95236.03;;;21.80;100.00
8075;BME280;4080;42.676;23.372;2023-09-19T19:25:37;95235.78;;;21.73;100.00
8075;BME280;4080;42.676;23.372;2023-09-19T19:28:12;95245.63;;;21.69;100.00
8075;BME280;4080;42.676;23.372;2023-09-19T19:30:43;95250.09;;;21.65;100.00
8075;BME280;4080;42.676;23.372;2023-09-19T19:33:10;95257.56;;;21.59;100.00
8075;BME280;4080;42.676;23.372;2023-09-19T19:35:37;95278.13;;;21.55;100.00
8075;BME280;4080;42.676;23.372;2023-09-19T19:38:05;95266.50;;;21.51;100.00
8075;BME280;4080;42.676;23.372;2023-09-19T19:40:34;95276.25;;;21.56;100.00
8075;BME280;4080;42.676;23.372;2023-09-19T19:43:01;95284.41;;;21.59;100.00
8075;BME280;4080;42.676;23.372;2023-09-19T19:45:28;95266.84;;;21.62;100.00
8075;BME280;4080;42.676;23.372;2023-09-19T19:47:56;95238.16;;;21.42;100.00
8075;BME280;4080;42.676;23.372;2023-09-19T19:50:23;95259.03;;;21.57;100.00
8075;BME280;4080;42.676;23.372;2023-09-19T19:52:51;95274.91;;;21.62;100.00
8075;BME280;4080;42.676;23.372;2023-09-19T19:55:22;95282.06;;;21.58;100.00
8075;BME280;4080;42.676;23.372;2023-09-19T19:57:54;95276.91;;;21.53;100.00
8075;BME280;4080;42.676;23.372;2023-09-19T20:00:20;95294.56;;;21.54;100.00
8075;BME280;4080;42.676;23.372;2023-09-19T20:02:48;95308.25;;;21.61;100.00
8075;BME280;4080;42.676;23.372;2023-09-19T20:05:15;95321.44;;;21.66;100.00
8075;BME280;4080;42.676;23.372;2023-09-19T20:07:42;95329.97;;;21.68;100.00
8075;BME280;4080;42.676;23.372;2023-09-19T20:10:11;95334.88;;;21.66;100.00
8075;BME280;4080;42.676;23.372;2023-09-19T20:12:41;95348.75;;;21.68;100.00
8075;BME280;4080;42.676;23.372;2023-09-19T20:15:10;95361.28;;;21.64;100.00
8075;BME280;4080;42.676;23.372;2023-09-19T20:17:37;95350.69;;;21.47;100.00
8075;BME280;4080;42.676;23.372;2023-09-19T20:20:04;95368.41;;;21.39;100.00
8075;BME280;4080;42.676;23.372;2023-09-19T20:22:38;95414.16;;;21.43;100.00
8075;BME280;4080;42.676;23.372;2023-09-19T20:25:05;95426.19;;;21.36;100.00
8075;BME280;4080;42.676;23.372;2023-09-19T20:27:33;95462.31;;;21.39;100.00
8075;BME280;4080;42.676;23.372;2023-09-19T20:30:00;95466.66;;;21.31;100.00
8075;BME280;4080;42.676;23.372;2023-09-19T20:32:28;95475.22;;;21.16;100.00
8075;BME280;4080;42.676;23.372;2023-09-19T20:34:55;95482.41;;;20.95;100.00
8075;BME280;4080;42.676;23.372;2023-09-19T20:37:25;95500.28;;;20.73;100.00
8075;BME280;4080;42.676;23.372;2023-09-19T20:39:52;95508.56;;;20.51;100.00
8075;BME280;4080;42.676;23.372;2023-09-19T20:42:19;95511.06;;;20.30;100.00
8075;BME280;4080;42.676;23.372;2023-09-19T20:44:48;95505.56;;;20.09;100.00
8075;BME280;4080;42.676;23.372;2023-09-19T20:47:15;95534.88;;;20.06;100.00
8075;BME280;4080;42.676;23.372;2023-09-19T20:49:43;95520.97;;;19.78;100.00
8075;BME280;4080;42.676;23.372;2023-09-19T20:52:10;95555.16;;;19.81;100.00
8075;BME280;4080;42.676;23.372;2023-09-19T20:54:38;95570.09;;;19.73;100.00
8075;BME280;4080;42.676;23.372;2023-09-19T20:57:08;95572.94;;;19.68;100.00
8075;BME280;4080;42.676;23.372;2023-09-19T20:59:35;95573.88;;;19.64;100.00
8075;BME280;4080;42.676;23.372;2023-09-19T21:02:03;95566.50;;;19.78;100.00
8075;BME280;4080;42.676;23.372;2023-09-19T21:04:30;95549.16;;;19.84;100.00
8075;BME280;4080;42.676;23.372;2023-09-19T21:06:59;95546.66;;;19.79;100.00
8075;BME280;4080;42.676;23.372;2023-09-19T21:09:26;95543.63;;;19.63;100.00
8075;BME280;4080;42.676;23.372;2023-09-19T21:11:53;95541.59;;;19.60;100.00
8075;BME280;4080;42.676;23.372;2023-09-19T21:14:20;95502.16;;;19.35;100.00
8075;BME280;4080;42.676;23.372;2023-09-19T21:16:47;95534.50;;;19.64;100.00
8075;BME280;4080;42.676;23.372;2023-09-19T21:19:15;95531.03;;;19.64;100.00
8075;BME280;4080;42.676;23.372;2023-09-19T21:21:42;95520.97;;;19.69;100.00
8075;BME280;4080;42.676;23.372;2023-09-19T21:24:12;95513.94;;;19.91;100.00
8075;BME280;4080;42.676;23.372;2023-09-19T21:26:42;95505.56;;;20.09;100.00
8075;BME280;4080;42.676;23.372;2023-09-19T21:29:09;95493.28;;;20.08;100.00
8075;BME280;4080;42.676;23.372;2023-09-19T21:31:36;95486.66;;;19.71;100.00
8075;BME280;4080;42.676;23.372;2023-09-19T21:34:02;95442.94;;;19.28;100.00
8075;BME280;4080;42.676;23.372;2023-09-19T21:36:31;95439.94;;;19.12;100.00
8075;BME280;4080;42.676;23.372;2023-09-19T21:38:58;95420.53;;;18.98;100.00
8075;BME280;4080;42.676;23.372;2023-09-19T21:41:27;95421.44;;;18.84;100.00
8075;BME280;4080;42.676;23.372;2023-09-19T21:43:54;95403.97;;;18.70;100.00
8075;BME280;4080;42.676;23.372;2023-09-19T21:46:21;95389.97;;;18.73;100.00
8075;BME280;4080;42.676;23.372;2023-09-19T21:48:48;95396.91;;;18.74;100.00
8075;BME280;4080;42.676;23.372;2023-09-19T21:51:16;95383.19;;;18.67;100.00
8075;BME280;4080;42.676;23.372;2023-09-19T21:53:43;95399.22;;;18.67;100.00
8075;BME280;4080;42.676;23.372;2023-09-19T21:56:10;95395.06;;;18.60;100.00
8075;BME280;4080;42.676;23.372;2023-09-19T21:58:38;95391.97;;;18.67;100.00
8075;BME280;4080;42.676;23.372;2023-09-19T22:01:05;95387.56;;;18.63;100.00
8075;BME280;4080;42.676;23.372;2023-09-19T22:03:33;95391.75;;;18.55;100.00
8075;BME280;4080;42.676;23.372;2023-09-19T22:06:02;95385.78;;;18.58;100.00
8075;BME280;4080;42.676;23.372;2023-09-19T22:08:31;95386.72;;;18.53;100.00
8075;BME280;4080;42.676;23.372;2023-09-19T22:10:58;95384.22;;;18.57;100.00
8075;BME280;4080;42.676;23.372;2023-09-19T22:13:26;95396.25;;;18.68;100.00
8075;BME280;4080;42.676;23.372;2023-09-19T22:15:56;95398.63;;;18.70;100.00
8075;BME280;4080;42.676;23.372;2023-09-19T22:18:24;95392.81;;;18.76;100.00
8075;BME280;4080;42.676;23.372;2023-09-19T22:20:52;95402.91;;;18.88;100.00
8075;BME280;4080;42.676;23.372;2023-09-19T22:23:25;95398.81;;;18.90;100.00
8075;BME280;4080;42.676;23.372;2023-09-19T22:25:58;95399.47;;;18.96;100.00
8075;BME280;4080;42.676;23.372;2023-09-19T22:28:29;95405.59;;;18.97;100.00
8075;BME280;4080;42.676;23.372;2023-09-19T22:31:00;95388.78;;;18.96;100.00
8075;BME280;4080;42.676;23.372;2023-09-19T22:33:27;95399.91;;;18.89;100.00
8075;BME280;4080;42.676;23.372;2023-09-19T22:35:55;95395.19;;;18.86;100.00
8075;BME280;4080;42.676;23.372;2023-09-19T22:38:23;95398.66;;;18.87;100.00
8075;BME280;4080;42.676;23.372;2023-09-19T22:40:50;95391.25;;;18.84;100.00
8075;BME280;4080;42.676;23.372;2023-09-19T22:43:18;95382.13;;;18.76;100.00
8075;BME280;4080;42.676;23.372;2023-09-19T22:45:46;95251.22;;;17.88;100.00
8075;BME280;4080;42.676;23.372;2023-09-19T22:48:15;95382.47;;;18.83;100.00
8075;BME280;4080;42.676;23.372;2023-09-19T22:50:43;95374.13;;;18.76;100.00
8075;BME280;4080;42.676;23.372;2023-09-19T22:53:11;95379.94;;;18.87;100.00
8075;BME280;4080;42.676;23.372;2023-09-19T22:55:44;95379.78;;;18.92;100.00
8075;BME280;4080;42.676;23.372;2023-09-19T22:58:11;95376.06;;;19.02;100.00
8075;BME280;4080;42.676;23.372;2023-09-19T23:00:39;95381.09;;;19.12;100.00
8075;BME280;4080;42.676;23.372;2023-09-19T23:03:07;95366.00;;;19.24;100.00
8075;BME280;4080;42.676;23.372;2023-09-19T23:05:37;95360.66;;;19.24;100.00
8075;BME280;4080;42.676;23.372;2023-09-19T23:08:05;95360.38;;;19.35;100.00
8075;BME280;4080;42.676;23.372;2023-09-19T23:10:41;95367.63;;;19.34;100.00
8075;BME280;4080;42.676;23.372;2023-09-19T23:13:09;95320.41;;;19.04;100.00
8075;BME280;4080;42.676;23.372;2023-09-19T23:15:37;95373.41;;;19.28;100.00
8075;BME280;4080;42.676;23.372;2023-09-19T23:18:05;95383.97;;;19.33;100.00
8075;BME280;4080;42.676;23.372;2023-09-19T23:20:38;95374.69;;;19.47;100.00
8075;BME280;4080;42.676;23.372;2023-09-19T23:23:07;95365.28;;;19.67;100.00
8075;BME280;4080;42.676;23.372;2023-09-19T23:25:40;95367.94;;;19.76;100.00
8075;BME280;4080;42.676;23.372;2023-09-19T23:28:07;95365.91;;;19.73;100.00
8075;BME280;4080;42.676;23.372;2023-09-19T23:30:36;95362.13;;;19.74;100.00
8075;BME280;4080;42.676;23.372;2023-09-19T23:33:03;95361.66;;;19.72;100.00
8075;BME280;4080;42.676;23.372;2023-09-19T23:35:31;95357.41;;;19.71;100.00
8075;BME280;4080;42.676;23.372;2023-09-19T23:38:00;95347.31;;;19.76;100.00
8075;BME280;4080;42.676;23.372;2023-09-19T23:40:27;95348.06;;;19.85;100.00
8075;BME280;4080;42.676;23.372;2023-09-19T23:42:55;95357.53;;;19.83;100.00
8075;BME280;4080;42.676;23.372;2023-09-19T23:45:24;95357.53;;;19.83;100.00
8075;BME280;4080;42.676;23.372;2023-09-19T23:47:52;95345.59;;;19.72;100.00
8075;BME280;4080;42.676;23.372;2023-09-19T23:50:19;95352.22;;;19.66;100.00
8075;BME280;4080;42.676;23.372;2023-09-19T23:52:48;95345.91;;;19.53;100.00
8075;BME280;4080;42.676;23.372;2023-09-19T23:55:16;95346.22;;;19.43;100.00
8075;BME280;4080;42.676;23.372;2023-09-19T23:57:50;95356.28;;;19.37;100.00
